Time;durP1;ratioP1;P1;durP2;ratioP2;P2;SDS_P1;SDS_P2;PMS_P1;PMS_P2;Temp;Humidity;BMP_temperature;BMP_pressure;BME280_temperature;BME280_humidity;BME280_pressure;Samples;Min_cycle;Max_cycle;Signal;HPM_P1;HPM_P2
2023/06/01 04:01:54;;;;;;;1.73;1.03;;;17.40;1.00;;;;;;5414923;23;20507;-74
2023/06/01 04:04:26;;;;;;;0.60;0.20;;;17.30;1.00;;;;;;5015691;28;20810;-73
2023/06/01 04:06:59;;;;;;;0.60;0.10;;;17.20;1.00;;;;;;5016314;28;20538;-73
2023/06/01 04:09:26;;;;;;;0.60;0.20;;;17.30;1.00;;;;;;4996995;28;20460;-73
2023/06/01 04:11:55;;;;;;;0.60;0.10;;;17.20;1.00;;;;;;5001010;28;20459;-74
2023/06/01 04:14:23;;;;;;;0.60;0.17;;;17.30;1.00;;;;;;4989419;23;20584;-81
2023/06/01 04:16:51;;;;;;;0.60;0.23;;;17.30;1.00;;;;;;4970956;29;20439;-83
2023/06/01 04:19:20;;;;;;;0.60;0.10;;;17.30;1.00;;;;;;4973655;28;20512;-82
2023/06/01 04:21:49;;;;;;;0.60;0.20;;;17.30;1.00;;;;;;4972185;28;20490;-82
2023/06/01 04:24:18;;;;;;;0.60;0.10;;;17.30;1.00;;;;;;4966728;28;20489;-82
2023/06/01 04:26:45;;;;;;;0.60;0.10;;;17.30;1.00;;;;;;4965893;28;20492;-81
2023/06/01 04:29:13;;;;;;;5.13;1.47;;;17.40;1.00;;;;;;4964756;29;20525;-81
2023/06/01 04:31:41;;;;;;;0.60;0.10;;;17.40;1.00;;;;;;4964680;28;20467;-81
2023/06/01 04:34:09;;;;;;;0.60;0.20;;;17.40;1.00;;;;;;4962568;29;20471;-82
2023/06/01 04:36:39;;;;;;;0.60;0.10;;;17.40;1.00;;;;;;4945880;29;20430;-81
2023/06/01 04:39:07;;;;;;;1.23;0.43;;;17.40;1.00;;;;;;4952571;29;20523;-81
2023/06/01 04:41:36;;;;;;;0.60;0.10;;;;;;;;;;4968081;28;20482;-80
2023/06/01 04:44:07;;;;;;;0.60;0.20;;;17.40;1.00;;;;;;4966705;28;20470;-82
2023/06/01 04:46:34;;;;;;;0.60;0.20;;;17.40;1.00;;;;;;4966960;29;20453;-82
2023/06/01 04:49:03;;;;;;;0.60;0.30;;;17.50;1.00;;;;;;4970384;28;20831;-82
2023/06/01 04:51:33;;;;;;;0.60;0.20;;;17.40;1.00;;;;;;4970950;29;20486;-82
2023/06/01 04:54:02;;;;;;;0.60;0.20;;;17.40;1.00;;;;;;4972359;28;20486;-81
2023/06/01 04:56:30;;;;;;;0.60;0.20;;;17.40;1.00;;;;;;4973568;29;20449;-82
2023/06/01 04:58:58;;;;;;;0.60;0.20;;;17.40;1.00;;;;;;4972946;28;20510;-82
2023/06/01 05:01:29;;;;;;;0.60;0.20;;;17.30;1.00;;;;;;4973094;28;20545;-81
2023/06/01 05:03:57;;;;;;;0.60;0.10;;;17.30;1.00;;;;;;4972531;28;20537;-79
2023/06/01 05:06:26;;;;;;;0.60;0.10;;;17.40;1.00;;;;;;4973126;29;20981;-80
2023/06/01 05:08:54;;;;;;;0.60;0.20;;;;;;;;;;4973119;29;20443;-82
2023/06/01 05:11:24;;;;;;;0.60;0.10;;;17.50;1.00;;;;;;4958577;29;20486;-82
2023/06/01 05:13:52;;;;;;;0.60;0.10;;;17.50;1.00;;;;;;4950061;29;20506;-82
2023/06/01 05:16:20;;;;;;;0.60;0.13;;;17.50;1.00;;;;;;4948456;29;20523;-81
2023/06/01 05:18:49;;;;;;;0.60;0.20;;;;;;;;;;4944869;29;20461;-82
2023/06/01 05:21:17;;;;;;;2.00;0.60;;;17.50;1.00;;;;;;4944330;29;20943;-81
2023/06/01 05:23:45;;;;;;;0.60;0.20;;;;;;;;;;4944636;29;20486;-81
2023/06/01 05:26:13;;;;;;;0.70;0.40;;;17.60;1.00;;;;;;4943189;29;20458;-82
2023/06/01 05:28:43;;;;;;;0.60;0.10;;;17.60;1.00;;;;;;4944745;29;21027;-81
2023/06/01 05:31:10;;;;;;;0.83;0.60;;;17.60;1.00;;;;;;4944462;29;20536;-82
2023/06/01 05:33:39;;;;;;;0.70;0.40;;;17.60;1.00;;;;;;4944090;29;20885;-83
2023/06/01 05:36:07;;;;;;;0.60;0.10;;;17.70;1.00;;;;;;4947217;29;20443;-84
2023/06/01 05:38:35;;;;;;;0.60;0.20;;;17.80;1.00;;;;;;4955210;29;20442;-83
2023/06/01 05:41:03;;;;;;;0.60;0.10;;;;;;;;;;4956582;29;20464;-82
2023/06/01 05:43:32;;;;;;;0.70;0.40;;;;;;;;;;4946990;29;20488;-82
2023/06/01 05:46:04;;;;;;;0.60;0.20;;;;;;;;;;4946737;29;21009;-82
2023/06/01 05:48:32;;;;;;;0.60;0.10;;;17.90;1.00;;;;;;4952683;29;20470;-82
2023/06/01 05:51:00;;;;;;;0.60;0.10;;;18.00;1.00;;;;;;4952428;29;20482;-83
2023/06/01 05:53:29;;;;;;;0.60;0.20;;;18.10;1.00;;;;;;4947683;29;20472;-82
2023/06/01 05:55:58;;;;;;;0.60;0.10;;;;;;;;;;4944966;29;20444;-81
2023/06/01 05:58:26;;;;;;;0.60;0.20;;;18.20;1.00;;;;;;4961955;28;20460;-82
2023/06/01 06:00:53;;;;;;;0.60;0.20;;;18.40;1.00;;;;;;4964940;29;20442;-82
2023/06/01 06:03:23;;;;;;;0.93;0.20;;;;;;;;;;4964063;28;20496;-81
2023/06/01 06:05:51;;;;;;;0.60;0.20;;;18.50;1.00;;;;;;4964933;29;20449;-81
2023/06/01 06:08:19;;;;;;;0.67;0.40;;;18.40;1.00;;;;;;4964207;29;20570;-82
2023/06/01 06:10:47;;;;;;;0.60;0.20;;;18.40;1.00;;;;;;4964004;29;20462;-81
2023/06/01 06:13:15;;;;;;;4.20;2.00;;;18.30;1.00;;;;;;4970342;29;20479;-82
2023/06/01 06:15:43;;;;;;;0.60;0.20;;;18.40;1.00;;;;;;4960359;29;20465;-81
2023/06/01 06:18:11;;;;;;;0.60;0.20;;;;;;;;;;4948653;29;20448;-80
2023/06/01 06:20:56;;;;;;;0.60;0.20;;;18.40;1.00;;;;;;4953195;29;20461;-81
2023/06/01 06:23:32;;;;;;;0.70;0.20;;;;;;;;;;4954852;29;20860;-80
2023/06/01 06:26:05;;;;;;;0.60;0.10;;;18.60;1.00;;;;;;4960545;29;20442;-82
2023/06/01 06:28:37;;;;;;;0.60;0.20;;;18.70;1.00;;;;;;4960337;28;21012;-81
2023/06/01 06:31:10;;;;;;;0.70;0.33;;;18.80;1.00;;;;;;4959410;28;20450;-81
2023/06/01 06:33:49;;;;;;;0.60;0.10;;;18.80;1.00;;;;;;4963551;28;20571;-81
2023/06/01 06:36:21;;;;;;;0.60;0.23;;;18.80;1.00;;;;;;4971548;28;20799;-82
2023/06/01 06:38:51;;;;;;;0.60;0.20;;;18.80;1.00;;;;;;4970857;28;20448;-82
2023/06/01 06:41:27;;;;;;;0.60;0.10;;;;;;;;;;4958779;28;20517;-81
2023/06/01 06:44:05;;;;;;;0.60;0.20;;;19.00;1.00;;;;;;4959369;29;20553;-82
2023/06/01 06:46:35;;;;;;;2.73;0.83;;;19.10;1.00;;;;;;4959006;29;20498;-81
2023/06/01 06:49:03;;;;;;;0.60;0.20;;;19.10;1.00;;;;;;4957579;29;20455;-81
2023/06/01 06:51:33;;;;;;;0.60;0.10;;;19.20;1.00;;;;;;4957677;28;20459;-81
2023/06/01 06:54:02;;;;;;;0.60;0.17;;;19.20;1.00;;;;;;4959002;28;20475;-81
2023/06/01 06:56:33;;;;;;;0.60;0.10;;;;;;;;;;4961163;28;20493;-80
2023/06/01 06:59:01;;;;;;;0.60;0.10;;;19.30;1.00;;;;;;4959533;29;20474;-80
2023/06/01 07:01:37;;;;;;;0.60;0.20;;;19.40;1.00;;;;;;4957120;29;20914;-80
2023/06/01 07:04:08;;;;;;;0.60;0.10;;;19.40;1.00;;;;;;4956609;29;20494;-79
2023/06/01 07:06:42;;;;;;;0.60;0.20;;;19.50;1.00;;;;;;4955130;28;20451;-79
2023/06/01 07:09:10;;;;;;;0.60;0.30;;;;;;;;;;4956820;28;20451;-80
2023/06/01 07:11:38;;;;;;;0.60;0.10;;;19.40;1.00;;;;;;4957031;29;20806;-81
2023/06/01 07:14:06;;;;;;;0.60;0.20;;;19.50;1.00;;;;;;4956751;28;20591;-80
2023/06/01 07:16:34;;;;;;;0.60;0.20;;;19.50;1.00;;;;;;4957050;29;20447;-80
2023/06/01 07:19:02;;;;;;;0.60;0.10;;;19.50;1.00;;;;;;4957634;29;20449;-80
2023/06/01 07:21:30;;;;;;;0.60;0.20;;;19.70;1.00;;;;;;4956379;29;20466;-80
2023/06/01 07:23:59;;;;;;;0.60;0.20;;;19.70;1.00;;;;;;4957447;29;20993;-80
2023/06/01 07:26:29;;;;;;;0.60;0.10;;;;;;;;;;4957181;29;21064;-81
2023/06/01 07:28:59;;;;;;;0.70;0.40;;;19.80;1.00;;;;;;4963573;28;20466;-82
2023/06/01 07:31:28;;;;;;;0.60;0.10;;;19.90;1.00;;;;;;4963398;28;20461;-81
2023/06/01 07:33:58;;;;;;;0.60;0.30;;;19.90;1.00;;;;;;4959007;28;20469;-81
2023/06/01 07:36:26;;;;;;;0.70;0.30;;;19.90;1.00;;;;;;4960689;29;20534;-82
2023/06/01 07:38:54;;;;;;;0.60;0.20;;;19.90;1.00;;;;;;4960460;29;20481;-81
2023/06/01 07:41:27;;;;;;;0.60;0.20;;;;;;;;;;4962792;28;20569;-82
2023/06/01 07:44:07;;;;;;;0.60;0.10;;;;;;;;;;4951550;29;20498;-81
2023/06/01 07:46:39;;;;;;;0.60;0.17;;;;;;;;;;4941157;29;20443;-83
2023/06/01 07:49:13;;;;;;;0.60;0.20;;;20.40;1.00;;;;;;4945149;29;20455;-82
2023/06/01 07:51:42;;;;;;;0.60;0.10;;;;;;;;;;4945681;29;20943;-83
2023/06/01 07:54:10;;;;;;;0.60;0.20;;;20.50;1.00;;;;;;4947978;29;20534;-83
2023/06/01 07:56:40;;;;;;;0.70;0.40;;;20.60;1.00;;;;;;4951059;29;20491;-80
2023/06/01 07:59:08;;;;;;;0.60;0.20;;;20.60;1.00;;;;;;4959309;29;20530;-81
2023/06/01 08:01:38;;;;;;;0.60;0.10;;;20.60;1.00;;;;;;4971738;29;20447;-82
2023/06/01 08:04:06;;;;;;;0.60;0.20;;;20.70;1.00;;;;;;4969728;28;20493;-80
2023/06/01 08:06:38;;;;;;;0.60;0.20;;;20.70;1.00;;;;;;4974765;28;20502;-80
2023/06/01 08:09:05;;;;;;;0.60;0.20;;;20.90;1.00;;;;;;4977365;28;20438;-81
2023/06/01 08:11:34;;;;;;;0.60;0.20;;;20.90;1.00;;;;;;4972588;28;20475;-82
2023/06/01 08:14:07;;;;;;;0.70;0.20;;;21.00;1.00;;;;;;4964676;28;20514;-82
2023/06/01 08:16:35;;;;;;;0.70;0.40;;;21.00;1.00;;;;;;4958568;29;20443;-81
2023/06/01 08:19:03;;;;;;;0.60;0.10;;;21.10;1.00;;;;;;4963620;29;20450;-80
2023/06/01 08:21:31;;;;;;;0.60;0.10;;;21.10;1.00;;;;;;4968037;29;20446;-79
2023/06/01 08:23:59;;;;;;;0.70;0.40;;;21.20;1.00;;;;;;4983999;28;20482;-80
2023/06/01 08:26:27;;;;;;;0.60;0.10;;;21.20;1.00;;;;;;4985166;28;20501;-79
2023/06/01 08:28:55;;;;;;;0.60;0.30;;;21.30;1.00;;;;;;4977792;28;20511;-80
2023/06/01 08:31:25;;;;;;;0.60;0.20;;;21.30;1.00;;;;;;4957082;29;20468;-79
2023/06/01 08:33:54;;;;;;;0.60;0.10;;;21.40;1.00;;;;;;4954692;29;20470;-72
2023/06/01 08:36:22;;;;;;;0.60;0.10;;;21.40;1.00;;;;;;4946092;29;20462;-73
2023/06/01 08:38:50;;;;;;;0.60;0.10;;;21.60;1.00;;;;;;4953930;28;20499;-73
2023/06/01 08:41:25;;;;;;;0.60;0.10;;;21.70;1.00;;;;;;4954169;29;20447;-73
2023/06/01 08:43:58;;;;;;;0.60;0.10;;;21.70;1.00;;;;;;4954190;28;20931;-75
2023/06/01 08:46:29;;;;;;;2.90;1.43;;;21.80;1.00;;;;;;4948862;28;20883;-74
2023/06/01 08:48:59;;;;;;;0.60;0.10;;;21.90;1.00;;;;;;4955485;29;20448;-73
2023/06/01 08:51:28;;;;;;;0.60;0.10;;;22.00;1.00;;;;;;4954938;29;20891;-74
2023/06/01 08:53:59;;;;;;;0.60;0.10;;;22.00;1.00;;;;;;4961701;28;20492;-74
2023/06/01 08:56:28;;;;;;;1.67;1.57;;;22.10;1.00;;;;;;4952779;28;20547;-73
2023/06/01 08:58:57;;;;;;;0.60;0.20;;;22.20;1.00;;;;;;4955062;28;20531;-72
2023/06/01 09:01:26;;;;;;;0.60;0.10;;;22.20;1.00;;;;;;4954846;29;20443;-75
2023/06/01 09:03:55;;;;;;;0.60;0.17;;;22.30;1.00;;;;;;4954520;29;20485;-74
2023/06/01 09:06:23;;;;;;;0.60;0.10;;;;;;;;;;4954638;29;20447;-74
2023/06/01 09:08:51;;;;;;;0.60;0.20;;;;;;;;;;4951728;28;20484;-74
2023/06/01 09:11:20;;;;;;;0.90;0.40;;;22.40;1.00;;;;;;4973976;28;20458;-73
2023/06/01 09:13:48;;;;;;;0.80;0.37;;;22.40;1.00;;;;;;4974091;28;20475;-74
2023/06/01 09:16:16;;;;;;;0.60;0.20;;;22.40;1.00;;;;;;4974651;28;20888;-73
2023/06/01 09:18:55;;;;;;;0.60;0.20;;;22.40;1.00;;;;;;4969102;28;20490;-74
2023/06/01 09:21:23;;;;;;;0.67;0.20;;;22.40;1.00;;;;;;4959647;28;20453;-74
2023/06/01 09:23:51;;;;;;;0.60;0.10;;;22.50;1.00;;;;;;4974032;28;20486;-73
2023/06/01 09:26:20;;;;;;;0.70;0.10;;;;;;;;;;4974983;28;20479;-73
2023/06/01 09:28:57;;;;;;;0.60;0.10;;;22.50;1.00;;;;;;4970307;28;20451;-73
2023/06/01 09:31:40;;;;;;;0.60;0.10;;;22.60;1.00;;;;;;4954255;28;20473;-73
2023/06/01 09:34:12;;;;;;;0.70;0.20;;;22.70;1.00;;;;;;4964659;28;20455;-74
2023/06/01 09:36:40;;;;;;;0.70;0.20;;;;;;;;;;4974594;28;20549;-73
2023/06/01 09:39:09;;;;;;;0.70;0.20;;;22.80;1.00;;;;;;4974828;28;20507;-73
2023/06/01 09:41:48;;;;;;;0.70;0.30;;;22.80;1.00;;;;;;4969861;28;20534;-75
2023/06/01 09:44:24;;;;;;;0.70;0.10;;;22.90;1.00;;;;;;4961946;28;20599;-73
2023/06/01 09:46:53;;;;;;;0.70;0.20;;;23.00;1.00;;;;;;4935913;29;20459;-74
2023/06/01 09:49:25;;;;;;;0.70;0.20;;;23.00;1.00;;;;;;4936013;29;20545;-75
2023/06/01 09:52:08;;;;;;;1.43;0.30;;;23.00;1.00;;;;;;4935214;29;20480;-75
2023/06/01 09:54:38;;;;;;;0.70;0.20;;;22.90;1.00;;;;;;4960339;28;20476;-75
2023/06/01 09:57:07;;;;;;;0.70;0.10;;;23.00;1.00;;;;;;4960889;28;20535;-73
2023/06/01 09:59:42;;;;;;;0.70;0.10;;;23.00;1.00;;;;;;4953275;29;20548;-74
2023/06/01 10:02:13;;;;;;;0.70;0.10;;;23.10;1.00;;;;;;4956252;29;20447;-72
2023/06/01 10:04:46;;;;;;;0.70;0.20;;;23.10;1.00;;;;;;4955991;28;20531;-74
2023/06/01 10:07:14;;;;;;;0.70;0.20;;;23.20;1.00;;;;;;4966457;28;20459;-75
2023/06/01 10:09:44;;;;;;;0.70;0.13;;;23.30;1.00;;;;;;4968130;28;20499;-75
2023/06/01 10:12:12;;;;;;;0.70;0.20;;;23.30;1.00;;;;;;4954473;28;20484;-73
2023/06/01 10:14:40;;;;;;;0.70;0.10;;;23.40;1.00;;;;;;4952847;28;20884;-74
2023/06/01 10:17:11;;;;;;;0.70;0.10;;;23.30;1.00;;;;;;4949646;28;20462;-74
2023/06/01 10:19:39;;;;;;;0.70;0.20;;;23.30;1.00;;;;;;4953611;28;20471;-75
2023/06/01 10:22:08;;;;;;;0.70;0.20;;;23.30;1.00;;;;;;4954164;28;20523;-74
2023/06/01 10:24:40;;;;;;;0.70;0.10;;;23.40;1.00;;;;;;4952495;29;20485;-74
2023/06/01 10:27:25;;;;;;;0.70;0.17;;;23.50;1.00;;;;;;4949132;29;20868;-71
2023/06/01 10:29:54;;;;;;;0.70;0.10;;;23.60;1.00;;;;;;4946632;28;20544;-71
2023/06/01 10:32:42;;;;;;;0.70;0.10;;;23.70;1.00;;;;;;4952680;28;20465;-72
2023/06/01 10:35:11;;;;;;;0.70;0.20;;;23.70;1.00;;;;;;4952005;29;21058;-72
2023/06/01 10:37:40;;;;;;;0.70;0.10;;;23.70;1.00;;;;;;4953291;29;20541;-71
2023/06/01 10:40:21;;;;;;;0.80;0.47;;;23.90;1.00;;;;;;4953509;28;20451;-71
2023/06/01 10:42:49;;;;;;;0.70;0.20;;;23.90;1.00;;;;;;4946424;29;20970;-73
2023/06/01 10:45:36;;;;;;;0.70;0.20;;;24.00;1.00;;;;;;4953460;28;20976;-72
2023/06/01 10:48:06;;;;;;;0.70;0.20;;;24.40;1.00;;;;;;4946629;28;20496;-71
2023/06/01 10:50:35;;;;;;;0.70;0.20;;;24.10;1.00;;;;;;4953376;28;20438;-72
2023/06/01 10:53:27;;;;;;;1.67;1.57;;;24.10;1.00;;;;;;4948731;28;20462;-71
2023/06/01 10:56:24;;;;;;;0.70;0.20;;;24.10;1.00;;;;;;4953373;28;20446;-74
2023/06/01 10:59:12;;;;;;;0.70;0.20;;;24.10;1.00;;;;;;4951040;29;20474;-74
2023/06/01 11:01:44;;;;;;;0.70;0.10;;;24.10;1.00;;;;;;4933266;29;20845;-72
2023/06/01 11:04:13;;;;;;;0.70;0.20;;;24.20;1.00;;;;;;4933808;29;20498;-73
2023/06/01 11:06:43;;;;;;;0.70;0.20;;;24.20;1.00;;;;;;4934565;29;20491;-72
2023/06/01 11:09:15;;;;;;;0.70;0.20;;;24.20;1.00;;;;;;4938078;29;20469;-73
2023/06/01 11:12:02;;;;;;;0.70;0.10;;;24.20;1.00;;;;;;4959265;28;20543;-72
2023/06/01 11:14:33;;;;;;;0.70;0.10;;;24.30;1.00;;;;;;4953188;28;20476;-73
2023/06/01 11:17:29;;;;;;;0.70;0.20;;;24.30;1.00;;;;;;4957274;28;20945;-73
2023/06/01 11:20:11;;;;;;;1.40;0.60;;;;;;;;;;4956764;29;20944;-74
2023/06/01 11:22:39;;;;;;;0.70;0.10;;;24.40;1.00;;;;;;4956587;29;20935;-73
2023/06/01 11:25:12;;;;;;;0.70;0.20;;;24.40;1.00;;;;;;4956649;29;20481;-73
2023/06/01 11:27:45;;;;;;;0.70;0.10;;;24.50;1.00;;;;;;4956347;28;20494;-73
2023/06/01 11:30:19;;;;;;;0.70;0.20;;;24.50;1.00;;;;;;4956787;29;20857;-74
2023/06/01 11:32:49;;;;;;;1.23;0.57;;;24.60;1.00;;;;;;4956298;29;20441;-71
2023/06/01 11:35:19;;;;;;;0.70;0.10;;;24.60;1.00;;;;;;4948090;28;20500;-71
2023/06/01 11:37:49;;;;;;;0.70;0.20;;;24.70;1.00;;;;;;4957066;29;20535;-72
2023/06/01 11:40:20;;;;;;;0.70;0.20;;;24.70;1.00;;;;;;4956433;29;20450;-72
2023/06/01 11:42:48;;;;;;;0.70;0.17;;;24.80;1.00;;;;;;4956143;29;20540;-72
2023/06/01 11:45:17;;;;;;;0.70;0.20;;;24.90;1.00;;;;;;4957193;29;20489;-73
2023/06/01 11:47:45;;;;;;;0.80;0.40;;;24.90;1.00;;;;;;4957098;29;20465;-71
2023/06/01 11:50:26;;;;;;;0.70;0.20;;;24.90;1.00;;;;;;4958180;29;20529;-72
2023/06/01 11:52:56;;;;;;;0.70;0.20;;;24.90;1.00;;;;;;4957875;28;20458;-73
2023/06/01 11:55:26;;;;;;;0.70;0.10;;;25.10;1.00;;;;;;4957052;28;20501;-72
2023/06/01 11:57:54;;;;;;;0.70;0.23;;;25.20;1.00;;;;;;4957342;29;20481;-76
2023/06/01 12:00:23;;;;;;;0.70;0.20;;;25.20;1.00;;;;;;4957973;29;20450;-71
2023/06/01 12:03:06;;;;;;;0.70;0.20;;;25.20;1.00;;;;;;4957027;29;21034;-73
2023/06/01 12:05:40;;;;;;;0.70;0.10;;;25.20;1.00;;;;;;4956817;28;20489;-72
2023/06/01 12:08:08;;;;;;;0.70;0.30;;;25.20;1.00;;;;;;4955988;29;20480;-73
2023/06/01 12:10:37;;;;;;;0.70;0.17;;;25.20;1.00;;;;;;4961415;28;20446;-71
2023/06/01 12:13:05;;;;;;;1.20;1.07;;;25.30;1.00;;;;;;4970364;28;20532;-71
2023/06/01 12:15:33;;;;;;;0.70;0.10;;;25.30;1.00;;;;;;4973456;28;20454;-72
2023/06/01 12:18:01;;;;;;;0.70;0.20;;;25.30;1.00;;;;;;4961962;28;20459;-71
2023/06/01 12:20:30;;;;;;;0.70;0.20;;;25.40;1.00;;;;;;4969590;28;20463;-72
2023/06/01 12:23:00;;;;;;;0.70;0.20;;;25.30;1.00;;;;;;4954127;28;20995;-73
2023/06/01 12:25:30;;;;;;;0.70;0.30;;;;;;;;;;4955221;29;20633;-74
2023/06/01 12:28:04;;;;;;;0.70;0.20;;;25.40;1.00;;;;;;4957843;29;20471;-72
2023/06/01 12:30:33;;;;;;;0.70;0.17;;;25.50;1.00;;;;;;4963448;28;20447;-72
2023/06/01 12:33:01;;;;;;;0.70;0.20;;;25.50;1.00;;;;;;4964330;28;20537;-73
2023/06/01 12:35:29;;;;;;;0.70;0.10;;;;;;;;;;4970077;28;20485;-74
2023/06/01 12:38:04;;;;;;;0.70;0.20;;;25.60;1.00;;;;;;4956473;29;20478;-73
2023/06/01 12:40:33;;;;;;;2.60;0.30;;;;;;;;;;4958481;29;20537;-72
2023/06/01 12:43:02;;;;;;;0.70;0.20;;;25.70;1.00;;;;;;4962042;28;20498;-71
2023/06/01 12:45:39;;;;;;;0.70;0.20;;;25.80;1.00;;;;;;4955194;29;20476;-72
2023/06/01 12:48:07;;;;;;;0.70;0.10;;;25.80;1.00;;;;;;4955663;29;20466;-72
2023/06/01 12:50:43;;;;;;;0.70;0.20;;;25.90;1.00;;;;;;4956019;29;20545;-73
2023/06/01 12:53:12;;;;;;;1.13;0.17;;;;;;;;;;4957908;28;20446;-73
2023/06/01 12:55:40;;;;;;;0.70;0.20;;;25.90;1.00;;;;;;4961809;28;20789;-71
2023/06/01 12:58:09;;;;;;;0.70;0.10;;;26.00;1.00;;;;;;4966635;28;20513;-73
2023/06/01 13:00:37;;;;;;;1.00;0.73;;;26.10;1.00;;;;;;4976506;28;20474;-72
2023/06/01 13:03:25;;;;;;;2.03;0.40;;;26.10;1.00;;;;;;4975462;28;20448;-72
2023/06/01 13:05:53;;;;;;;0.70;0.20;;;26.20;1.00;;;;;;4967849;28;20514;-71
2023/06/01 13:08:22;;;;;;;0.70;0.20;;;26.20;1.00;;;;;;4951867;28;20445;-72
2023/06/01 13:10:50;;;;;;;0.70;0.20;;;26.30;1.00;;;;;;4960601;28;20454;-71
2023/06/01 13:13:19;;;;;;;0.80;0.20;;;26.30;1.00;;;;;;4956307;29;20873;-73
2023/06/01 13:15:47;;;;;;;0.70;0.20;;;26.40;1.00;;;;;;4955604;28;20454;-72
2023/06/01 13:18:15;;;;;;;0.70;0.20;;;26.40;1.00;;;;;;4971318;28;20526;-72
2023/06/01 13:20:43;;;;;;;0.70;0.20;;;26.50;1.00;;;;;;4947488;28;20486;-73
2023/06/01 13:23:11;;;;;;;0.83;0.27;;;26.40;1.00;;;;;;4955508;28;20542;-73
2023/06/01 13:25:40;;;;;;;0.70;0.10;;;26.50;1.00;;;;;;4957083;29;20485;-73
2023/06/01 13:28:08;;;;;;;0.70;0.20;;;26.50;1.00;;;;;;4955753;29;20506;-73
2023/06/01 13:30:38;;;;;;;0.70;0.10;;;26.50;1.00;;;;;;4957565;28;20482;-71
2023/06/01 13:33:07;;;;;;;0.70;0.17;;;26.60;1.00;;;;;;4951823;29;20450;-73
2023/06/01 13:35:36;;;;;;;0.70;0.10;;;26.60;1.00;;;;;;4953648;29;20442;-71
2023/06/01 13:38:04;;;;;;;0.70;0.10;;;26.70;1.00;;;;;;4955054;29;20443;-74
2023/06/01 13:40:32;;;;;;;0.70;0.10;;;26.80;1.00;;;;;;4954454;29;20442;-73
2023/06/01 13:43:01;;;;;;;1.00;0.60;;;26.80;1.00;;;;;;4954255;29;20446;-73
2023/06/01 13:45:29;;;;;;;0.70;0.20;;;26.80;1.00;;;;;;4954585;29;20458;-73
2023/06/01 13:47:58;;;;;;;2.03;0.70;;;26.80;1.00;;;;;;4955295;29;20564;-74
2023/06/01 13:50:26;;;;;;;0.70;0.10;;;26.80;1.00;;;;;;4955167;29;20861;-74
2023/06/01 13:52:54;;;;;;;0.70;0.20;;;26.80;1.00;;;;;;4955880;29;20451;-72
2023/06/01 13:55:22;;;;;;;0.70;0.10;;;26.90;1.00;;;;;;4955904;29;20509;-72
2023/06/01 13:57:50;;;;;;;0.70;0.40;;;26.80;1.00;;;;;;4955891;29;20499;-72
2023/06/01 14:00:19;;;;;;;0.70;0.20;;;26.80;1.00;;;;;;4955709;28;20958;-72
2023/06/01 14:02:49;;;;;;;0.70;0.20;;;27.10;1.00;;;;;;4956403;28;20522;-75
2023/06/01 14:05:19;;;;;;;0.70;0.20;;;27.20;1.00;;;;;;4955340;29;20474;-72
2023/06/01 14:08:04;;;;;;;0.70;0.10;;;27.20;1.00;;;;;;4955018;29;20818;-74
2023/06/01 14:10:33;;;;;;;1.93;0.50;;;27.20;1.00;;;;;;4954759;29;21021;-74
2023/06/01 14:13:01;;;;;;;0.70;0.20;;;27.30;1.00;;;;;;4961815;28;20460;-74
2023/06/01 14:15:30;;;;;;;0.70;0.10;;;27.30;1.00;;;;;;4948319;29;20547;-75
2023/06/01 14:17:58;;;;;;;0.70;0.20;;;;;;;;;;4954493;28;20493;-74
2023/06/01 14:20:28;;;;;;;0.70;0.20;;;27.40;1.00;;;;;;4949657;29;20533;-75
2023/06/01 14:22:55;;;;;;;0.70;0.10;;;27.50;1.00;;;;;;4954829;29;20490;-76
2023/06/01 14:25:24;;;;;;;0.70;0.20;;;27.50;1.00;;;;;;4956268;29;20477;-77
2023/06/01 14:27:52;;;;;;;0.70;0.20;;;27.60;1.00;;;;;;4956543;29;20490;-75
2023/06/01 14:30:19;;;;;;;0.70;0.20;;;27.60;1.00;;;;;;4955960;29;20454;-75
2023/06/01 14:32:47;;;;;;;0.70;0.20;;;27.50;1.00;;;;;;4957174;29;20474;-74
2023/06/01 14:35:16;;;;;;;0.70;0.10;;;27.50;1.00;;;;;;4955896;29;20459;-74
2023/06/01 14:37:45;;;;;;;0.70;0.20;;;27.70;1.00;;;;;;4955939;29;20439;-76
2023/06/01 14:40:17;;;;;;;0.70;0.20;;;;;;;;;;4955770;29;20770;-75
2023/06/01 14:42:45;;;;;;;0.70;0.20;;;27.90;1.00;;;;;;4958359;28;20541;-76
2023/06/01 14:45:13;;;;;;;0.70;0.10;;;27.90;1.00;;;;;;4963352;29;20470;-77
2023/06/01 14:47:42;;;;;;;0.70;0.10;;;27.80;1.00;;;;;;4966150;29;20568;-75
2023/06/01 14:50:11;;;;;;;0.70;0.10;;;28.10;1.00;;;;;;4963241;29;20450;-75
2023/06/01 14:52:39;;;;;;;0.70;0.10;;;28.20;1.00;;;;;;4962631;29;20454;-75
2023/06/01 14:55:09;;;;;;;0.70;0.20;;;28.40;1.00;;;;;;4962641;29;20462;-75
2023/06/01 14:57:39;;;;;;;0.70;0.20;;;28.60;1.00;;;;;;4964176;29;20446;-74
2023/06/01 15:00:08;;;;;;;0.70;0.20;;;28.80;1.00;;;;;;4963294;29;20477;-74
2023/06/01 15:02:36;;;;;;;0.70;0.10;;;28.70;1.00;;;;;;4963523;29;20446;-74
2023/06/01 15:05:05;;;;;;;0.70;0.10;;;28.80;1.00;;;;;;4961415;29;20979;-74
2023/06/01 15:07:33;;;;;;;1.93;0.60;;;28.70;1.00;;;;;;4962115;29;20482;-74
2023/06/01 15:10:01;;;;;;;0.70;0.17;;;28.50;1.00;;;;;;4964371;28;20539;-75
2023/06/01 15:12:30;;;;;;;0.70;0.10;;;28.60;1.00;;;;;;4983492;28;20449;-74
2023/06/01 15:14:58;;;;;;;0.70;0.20;;;28.70;1.00;;;;;;4954555;28;20545;-75
2023/06/01 15:17:26;;;;;;;0.70;0.10;;;28.70;1.00;;;;;;4941424;29;20467;-77
2023/06/01 15:19:54;;;;;;;0.80;0.40;;;28.80;1.00;;;;;;4959180;29;20460;-74
2023/06/01 15:22:22;;;;;;;0.70;0.20;;;28.80;1.00;;;;;;4960589;29;20447;-76
2023/06/01 15:24:50;;;;;;;3.43;1.33;;;28.70;1.00;;;;;;4959086;29;20542;-75
2023/06/01 15:27:19;;;;;;;0.70;0.20;;;28.80;1.00;;;;;;4959611;29;20510;-76
2023/06/01 15:29:48;;;;;;;0.97;0.30;;;28.80;1.00;;;;;;4960801;28;20943;-75
2023/06/01 15:32:16;;;;;;;0.70;0.20;;;29.10;1.00;;;;;;4957669;29;20478;-74
2023/06/01 15:34:44;;;;;;;0.70;0.17;;;29.20;1.00;;;;;;4957905;29;20558;-75
2023/06/01 15:37:13;;;;;;;0.97;0.40;;;29.20;1.00;;;;;;4957584;29;20447;-74
2023/06/01 15:39:41;;;;;;;0.70;0.17;;;29.20;1.00;;;;;;4957385;29;20457;-74
2023/06/01 15:42:10;;;;;;;0.70;0.13;;;28.80;1.00;;;;;;4958363;29;20474;-73
2023/06/01 15:44:41;;;;;;;2.33;1.27;;;28.90;1.00;;;;;;4957561;29;20561;-74
2023/06/01 15:47:10;;;;;;;0.70;0.10;;;29.00;1.00;;;;;;4957543;29;20452;-73
2023/06/01 15:49:40;;;;;;;0.70;0.10;;;29.10;1.00;;;;;;4958256;29;20470;-75
2023/06/01 15:52:11;;;;;;;0.70;0.20;;;29.10;1.00;;;;;;4957816;29;21018;-74
2023/06/01 15:54:39;;;;;;;0.80;0.30;;;29.30;1.00;;;;;;4957071;28;20536;-75
2023/06/01 15:57:07;;;;;;;2.70;1.07;;;29.40;1.00;;;;;;4957279;29;20455;-75
2023/06/01 15:59:35;;;;;;;0.90;0.73;;;29.40;1.00;;;;;;4958116;29;20457;-74
2023/06/01 16:02:03;;;;;;;0.70;0.20;;;29.40;1.00;;;;;;4959334;29;20493;-75
2023/06/01 16:04:33;;;;;;;0.70;0.20;;;29.50;1.00;;;;;;4957695;29;20473;-77
2023/06/01 16:07:01;;;;;;;0.70;0.20;;;29.70;1.00;;;;;;4961350;29;20476;-74
2023/06/01 16:09:28;;;;;;;0.70;0.20;;;29.90;1.00;;;;;;4958688;29;20503;-74
2023/06/01 16:11:56;;;;;;;0.70;0.10;;;30.00;1.00;;;;;;4958002;29;20539;-75
2023/06/01 16:14:24;;;;;;;0.70;0.20;;;30.10;1.00;;;;;;4950115;28;20573;-76
2023/06/01 16:16:52;;;;;;;0.70;0.20;;;30.00;1.00;;;;;;4956389;29;20963;-75
2023/06/01 16:19:20;;;;;;;0.70;0.20;;;30.10;1.00;;;;;;4950489;29;20537;-75
2023/06/01 16:21:52;;;;;;;0.70;0.20;;;30.50;1.00;;;;;;4958032;28;20544;-76
2023/06/01 16:24:20;;;;;;;1.10;0.67;;;30.40;1.00;;;;;;4954837;29;21075;-76
2023/06/01 16:26:48;;;;;;;0.70;0.40;;;29.70;1.00;;;;;;4949413;29;20452;-76
2023/06/01 16:29:16;;;;;;;2.57;1.67;;;29.70;1.00;;;;;;4939080;29;20509;-77
2023/06/01 16:31:44;;;;;;;1.17;0.50;;;;;;;;;;4944076;28;20514;-76
2023/06/01 16:34:12;;;;;;;0.77;0.37;;;28.20;1.00;;;;;;4953711;28;20502;-77
2023/06/01 16:36:40;;;;;;;2.60;1.50;;;28.10;1.00;;;;;;4941099;29;20452;-76
2023/06/01 16:39:09;;;;;;;0.80;0.20;;;28.00;1.00;;;;;;4954443;29;20481;-78
2023/06/01 16:41:37;;;;;;;0.70;0.10;;;28.00;1.00;;;;;;4958714;29;20466;-78
2023/06/01 16:44:05;;;;;;;0.70;0.10;;;28.20;1.00;;;;;;4951868;29;20495;-79
2023/06/01 16:46:33;;;;;;;1.27;0.43;;;28.30;1.00;;;;;;4950356;29;20460;-78
2023/06/01 16:49:01;;;;;;;1.33;0.50;;;28.30;1.00;;;;;;4945197;29;20487;-80
2023/06/01 16:51:29;;;;;;;2.10;0.40;;;28.40;1.00;;;;;;4939043;29;20460;-80
2023/06/01 16:53:57;;;;;;;0.70;0.20;;;28.30;1.00;;;;;;4938603;29;20507;-78
2023/06/01 16:56:27;;;;;;;0.70;0.20;;;28.20;1.00;;;;;;4954644;29;20522;-77
2023/06/01 16:58:55;;;;;;;1.70;0.87;;;28.00;1.00;;;;;;4956332;29;20493;-78
2023/06/01 17:01:22;;;;;;;0.70;0.20;;;27.80;1.00;;;;;;4959200;29;20473;-78
2023/06/01 17:03:50;;;;;;;0.83;0.50;;;27.70;1.00;;;;;;4956658;29;20463;-77
2023/06/01 17:06:20;;;;;;;0.70;0.10;;;27.80;1.00;;;;;;4948354;28;20915;-79
2023/06/01 17:08:48;;;;;;;1.73;0.70;;;27.80;1.00;;;;;;4948545;29;20533;-79
2023/06/01 17:11:16;;;;;;;1.00;0.50;;;27.80;1.00;;;;;;4948430;28;20451;-79
2023/06/01 17:13:46;;;;;;;1.10;0.40;;;27.50;1.00;;;;;;4953674;29;20501;-79
2023/06/01 17:16:14;;;;;;;1.37;0.60;;;27.50;1.00;;;;;;4958201;29;20478;-79
2023/06/01 17:18:43;;;;;;;0.80;0.60;;;;;;;;;;4958150;29;20482;-77
2023/06/01 17:21:11;;;;;;;0.70;0.10;;;27.40;1.00;;;;;;4958999;28;20447;-79
2023/06/01 17:23:38;;;;;;;1.03;0.30;;;27.60;1.00;;;;;;4963087;28;20497;-77